Time;durP1;ratioP1;P1;durP2;ratioP2;P2;SDS_P1;SDS_P2;PMS_P1;PMS_P2;Temp;Humidity;BMP_temperature;BMP_pressure;BME280_temperature;BME280_humidity;BME280_pressure;Samples;Min_cycle;Max_cycle;Signal;HPM_P1;HPM_P2
2022/12/30 00:01:38;;;;;;;;;;;7.60;1.00;;;;;;5065517;28;19921;-82
2022/12/30 00:04:11;;;;;;;;;;;7.60;1.00;;;;;;5042490;28;20054;-82
2022/12/30 00:06:37;;;;;;;;;;;7.60;1.00;;;;;;5035039;28;19995;-76
2022/12/30 00:09:03;;;;;;;;;;;7.60;1.00;;;;;;5033212;28;20333;-77
2022/12/30 00:11:32;;;;;;;;;;;7.60;1.00;;;;;;5034425;28;19913;-77
2022/12/30 00:34:17;;;;;;;;;;;7.30;1.00;;;;;;5050568;28;19916;-76
2022/12/30 00:39:53;;;;;;;;;;;7.30;1.00;;;;;;5046750;28;19935;-82
2022/12/30 00:45:35;;;;;;;;;;;7.10;1.00;;;;;;5052001;28;19913;-82
2022/12/30 00:57:29;;;;;;;;;;;6.70;1.00;;;;;;5051959;28;19916;-82
2022/12/30 01:00:29;;;;;;;;;;;6.50;1.00;;;;;;5071124;28;20376;-83
2022/12/30 01:02:55;;;;;;;;;;;6.40;1.00;;;;;;5060744;28;20356;-83
2022/12/30 01:05:23;;;;;;;;;;;6.40;1.00;;;;;;5050323;28;20004;-76
2022/12/30 01:08:06;;;;;;;;;;;6.30;1.00;;;;;;5059691;28;19912;-76
2022/12/30 01:10:37;;;;;;;;;;;6.30;1.00;;;;;;5055313;28;20029;-77
2022/12/30 01:13:18;;;;;;;;;;;6.30;1.00;;;;;;5058025;28;19909;-77
2022/12/30 01:15:47;;;;;;;;;;;6.20;1.00;;;;;;5055465;28;19920;-77
2022/12/30 01:18:29;;;;;;;;;;;6.10;1.00;;;;;;5066588;28;19908;-76
2022/12/30 01:21:17;;;;;;;;;;;6.00;1.00;;;;;;5074710;28;19912;-79
2022/12/30 01:24:05;;;;;;;;;;;5.90;1.00;;;;;;5042432;28;19908;-77
2022/12/30 01:26:35;;;;;;;;;;;5.80;1.00;;;;;;5046727;28;19912;-76
2022/12/30 01:29:01;;;;;;;;;;;5.80;1.00;;;;;;5052177;28;19913;-77
2022/12/30 01:31:29;;;;;;;;;;;5.70;1.00;;;;;;5037288;28;19909;-76
2022/12/30 01:33:55;;;;;;;;;;;5.70;1.00;;;;;;5054407;28;19912;-77
2022/12/30 01:36:21;;;;;;;;;;;5.60;1.00;;;;;;5047025;28;20319;-82
2022/12/30 01:38:47;;;;;;;;;;;5.60;1.00;;;;;;5039439;28;19988;-82
2022/12/30 01:41:41;;;;;;;;;;;5.50;1.00;;;;;;5046845;28;19914;-82
2022/12/30 01:44:29;;;;;;;;;;;5.50;1.00;;;;;;5049368;28;19936;-82
2022/12/30 01:47:00;;;;;;;;;;;5.40;1.00;;;;;;5036600;28;19910;-82
2022/12/30 01:49:25;;;;;;;;;;;5.40;1.00;;;;;;5047647;28;19920;-83
2022/12/30 01:51:51;;;;;;;;;;;5.30;1.00;;;;;;5039611;28;19909;-76
2022/12/30 01:54:17;;;;;;;;;;;5.20;1.00;;;;;;5049306;28;20343;-76
2022/12/30 01:56:53;;;;;;;;;;;5.10;1.00;;;;;;5065960;28;20019;-76
2022/12/30 01:59:41;;;;;;;;;;;5.10;1.00;;;;;;5049349;28;19912;-76
2022/12/30 02:02:12;;;;;;;;;;;5.10;1.00;;;;;;5044488;28;20011;-77
2022/12/30 02:04:37;;;;;;;;;;;5.10;1.00;;;;;;5040241;28;19921;-76
2022/12/30 02:07:05;;;;;;;;;;;5.00;1.00;;;;;;5035957;28;19960;-77
2022/12/30 02:09:31;;;;;;;;;;;5.00;1.00;;;;;;5049467;28;19959;-77
2022/12/30 02:11:58;;;;;;;;;;;5.00;1.00;;;;;;5036548;28;20494;-76
2022/12/30 02:14:25;;;;;;;;;;;4.90;1.00;;;;;;5035525;28;19914;-77
2022/12/30 02:17:26;;;;;;;;;;;4.90;1.00;;;;;;5045513;28;19913;-77
2022/12/30 02:20:11;;;;;;;;;;;4.90;1.00;;;;;;5014607;28;20285;-76
2022/12/30 02:22:59;;;;;;;;;;;4.90;1.00;;;;;;5014356;28;19964;-76
2022/12/30 02:25:45;;;;;;;;;;;4.90;1.00;;;;;;5014604;28;19949;-76
2022/12/30 02:28:24;;;;;;;;;;;4.90;1.00;;;;;;5003766;28;19985;-77
2022/12/30 02:31:23;;;;;;;;;;;4.90;1.00;;;;;;5007021;28;20346;-76
2022/12/30 02:34:17;;;;;;;;;;;4.80;1.00;;;;;;5007738;28;19910;-76
2022/12/30 02:36:47;;;;;;;;;;;4.80;1.00;;;;;;4999771;28;19913;-82
2022/12/30 02:57:32;;;;;;;;;;;4.60;5.30;;;;;;5049168;28;19919;-82
2022/12/30 03:06:23;;;;;;;;;;;4.50;6.20;;;;;;5039092;28;20288;-82
2022/12/30 03:09:00;;;;;;;;;;;4.40;7.80;;;;;;5036148;28;19920;-77
2022/12/30 03:11:28;;;;;;;;;;;4.40;9.10;;;;;;5045840;28;19971;-76
2022/12/30 03:13:56;;;;;;;;;;;4.40;9.00;;;;;;5036537;28;19921;-77
2022/12/30 03:16:41;;;;;;;;;;;4.30;8.70;;;;;;5055046;28;19915;-76
2022/12/30 03:19:16;;;;;;;;;;;4.40;11.40;;;;;;5049774;28;19916;-76
2022/12/30 03:21:42;;;;;;;;;;;4.30;13.90;;;;;;5048575;28;19919;-82
2022/12/30 03:27:14;;;;;;;;;;;4.30;12.00;;;;;;5036994;28;20008;-83
2022/12/30 03:32:43;;;;;;;;;;;4.10;9.50;;;;;;5034886;28;19917;-83
2022/12/30 03:35:12;;;;;;;;;;;4.10;7.20;;;;;;5033463;28;19913;-83
2022/12/30 03:37:49;;;;;;;;;;;4.10;6.90;;;;;;5034529;28;19913;-76
2022/12/30 03:40:26;;;;;;;;;;;4.00;10.30;;;;;;5039427;28;19921;-76
2022/12/30 03:42:52;;;;;;;;;;;4.10;14.70;;;;;;5034746;28;19913;-76
2022/12/30 03:45:41;;;;;;;;;;;4.10;18.80;;;;;;5034720;28;19916;-76
2022/12/30 03:48:24;;;;;;;;;;;4.00;20.70;;;;;;5037395;28;19910;-76
2022/12/30 03:50:49;;;;;;;;;;;4.00;23.30;;;;;;5046743;28;19951;-76
2022/12/30 03:53:23;;;;;;;;;;;3.90;24.00;;;;;;5035870;28;19913;-77
2022/12/30 03:55:54;;;;;;;;;;;4.00;28.90;;;;;;5034607;28;20011;-76
2022/12/30 03:58:19;;;;;;;;;;;3.90;29.10;;;;;;5051714;28;19910;-77
2022/12/30 04:00:45;;;;;;;;;;;3.90;32.60;;;;;;5045465;28;19955;-77
2022/12/30 04:03:29;;;;;;;;;;;3.90;32.50;;;;;;5036983;28;19936;-77
2022/12/30 04:05:55;;;;;;;;;;;3.90;34.70;;;;;;5033465;28;20373;-77
2022/12/30 04:08:30;;;;;;;;;;;3.90;37.60;;;;;;5034620;28;19963;-77
2022/12/30 04:11:00;;;;;;;;;;;3.80;33.00;;;;;;5045410;28;19909;-77
2022/12/30 04:13:30;;;;;;;;;;;3.80;32.00;;;;;;5034480;28;19909;-76
2022/12/30 04:16:00;;;;;;;;;;;3.90;37.90;;;;;;5033872;28;19913;-77
2022/12/30 04:18:36;;;;;;;;;;;3.90;37.70;;;;;;5033116;28;19988;-77
2022/12/30 04:21:01;;;;;;;;;;;4.00;37.80;;;;;;5040561;28;19963;-78
2022/12/30 04:23:53;;;;;;;;;;;4.00;37.80;;;;;;5051298;28;19913;-83
2022/12/30 04:29:23;;;;;;;;;;;4.10;37.90;;;;;;5034023;28;19920;-83
2022/12/30 04:32:03;;;;;;;;;;;4.20;37.90;;;;;;5042858;28;19909;-82
2022/12/30 04:34:47;;;;;;;;;;;4.20;38.20;;;;;;5047981;28;19982;-83
2022/12/30 04:37:48;;;;;;;;;;;4.30;38.20;;;;;;5043213;28;19913;-77
2022/12/30 04:40:14;;;;;;;;;;;4.40;38.20;;;;;;5052028;28;19917;-77
2022/12/30 04:42:40;;;;;;;;;;;4.50;38.20;;;;;;5058328;28;20442;-77
2022/12/30 04:45:06;;;;;;;;;;;4.60;38.30;;;;;;5045217;28;19963;-77
2022/12/30 04:47:42;;;;;;;;;;;4.70;38.40;;;;;;5043574;28;19999;-76
2022/12/30 04:50:24;;;;;;;;;;;4.90;44.30;;;;;;5044761;28;19916;-77
2022/12/30 04:52:53;;;;;;;;;;;5.00;51.40;;;;;;5057673;28;20364;-83
2022/12/30 04:58:53;;;;;;;;;;;5.20;41.90;;;;;;5056362;28;19916;-83
2022/12/30 05:07:25;;;;;;;;;;;5.30;38.80;;;;;;5047454;28;19920;-77
2022/12/30 05:10:00;;;;;;;;;;;5.40;38.90;;;;;;5041291;28;19909;-77
2022/12/30 05:12:25;;;;;;;;;;;5.40;39.00;;;;;;5048484;28;19908;-77
2022/12/30 05:14:51;;;;;;;;;;;5.50;39.00;;;;;;5041541;28;19917;-77
2022/12/30 05:17:17;;;;;;;;;;;5.60;39.20;;;;;;5047290;28;19909;-77
2022/12/30 05:19:48;;;;;;;;;;;5.70;39.30;;;;;;5044997;28;20338;-77
2022/12/30 05:22:24;;;;;;;;;;;5.80;39.30;;;;;;5056713;28;19916;-77
2022/12/30 05:27:54;;;;;;;;;;;5.90;39.60;;;;;;5038466;28;19915;-82
2022/12/30 05:33:22;;;;;;;;;;;6.00;39.50;;;;;;5045903;28;19915;-83
2022/12/30 05:35:54;;;;;;;;;;;6.20;39.60;;;;;;5046193;28;19917;-83
2022/12/30 05:38:30;;;;;;;;;;;6.20;39.60;;;;;;5045221;28;19963;-77
2022/12/30 05:44:17;;;;;;;;;;;6.40;39.80;;;;;;5041251;28;19928;-77
2022/12/30 05:47:05;;;;;;;;;;;6.50;39.80;;;;;;5037180;28;19963;-77
2022/12/30 05:49:36;;;;;;;;;;;6.60;40.00;;;;;;5037097;28;19916;-77
2022/12/30 05:52:01;;;;;;;;;;;6.70;40.00;;;;;;5044915;28;19920;-77
2022/12/30 05:54:30;;;;;;;;;;;6.80;40.20;;;;;;5049285;28;19958;-83
2022/12/30 05:57:29;;;;;;;;;;;6.90;40.40;;;;;;5057033;28;19909;-83
2022/12/30 06:00:24;;;;;;;;;;;7.00;40.30;;;;;;5049222;28;19913;-83
2022/12/30 06:02:54;;;;;;;;;;;7.10;29.50;;;;;;5044498;28;19916;-83
2022/12/30 06:05:30;;;;;;;;;;;7.20;20.90;;;;;;5044498;28;20012;-83
2022/12/30 06:07:59;;;;;;;;;;;7.30;17.80;;;;;;5037040;28;19913;-79
2022/12/30 06:10:30;;;;;;;;;;;7.40;15.40;;;;;;5036846;28;19916;-82
2022/12/30 06:13:24;;;;;;;;;;;7.50;10.00;;;;;;5039435;28;19919;-83
2022/12/30 06:15:54;;;;;;;;;;;7.50;6.90;;;;;;5051912;28;19917;-83
2022/12/30 06:18:36;;;;;;;;;;;7.60;5.10;;;;;;5048893;28;19909;-82
2022/12/30 06:21:02;;;;;;;;;;;7.60;2.30;;;;;;5036519;28;19913;-83
2022/12/30 06:23:27;;;;;;;;;;;7.60;2.40;;;;;;5051209;28;19936;-78
2022/12/30 06:25:54;;;;;;;;;;;7.60;1.90;;;;;;5048859;28;19909;-77
2022/12/30 06:28:25;;;;;;;;;;;7.70;1.70;;;;;;5043551;28;19913;-77
2022/12/30 06:31:18;;;;;;;;;;;7.70;1.00;;;;;;5051936;28;20326;-76
2022/12/30 06:33:48;;;;;;;;;;;7.80;1.00;;;;;;5052335;28;19909;-77
2022/12/30 06:36:14;;;;;;;;;;;7.90;1.00;;;;;;5036042;28;19909;-77
2022/12/30 06:38:48;;;;;;;;;;;7.90;1.00;;;;;;5054616;28;19920;-78
2022/12/30 06:41:14;;;;;;;;;;;7.90;1.00;;;;;;5040980;28;19909;-77
2022/12/30 06:43:54;;;;;;;;;;;8.00;1.00;;;;;;5045138;28;20292;-77
2022/12/30 06:46:42;;;;;;;;;;;8.00;1.00;;;;;;5037100;28;19909;-77
2022/12/30 06:49:12;;;;;;;;;;;7.90;1.00;;;;;;5044020;28;19909;-77
2022/12/30 06:51:42;;;;;;;;;;;8.00;1.00;;;;;;5049239;28;19909;-80
2022/12/30 06:54:12;;;;;;;;;;;8.00;1.00;;;;;;5042147;28;19959;-78
2022/12/30 06:56:54;;;;;;;;;;;8.10;1.00;;;;;;5034553;28;19909;-78
2022/12/30 06:59:30;;;;;;;;;;;8.00;1.00;;;;;;5044693;28;19909;-77
2022/12/30 07:02:00;;;;;;;;;;;8.00;1.00;;;;;;5058799;28;19916;-77
2022/12/30 07:04:36;;;;;;;;;;;8.00;1.00;;;;;;5047524;28;19963;-78
2022/12/30 07:07:02;;;;;;;;;;;8.10;1.00;;;;;;5047428;28;19952;-78
2022/12/30 07:09:27;;;;;;;;;;;7.90;1.00;;;;;;5041679;28;19916;-78
2022/12/30 07:11:54;;;;;;;;;;;8.00;1.00;;;;;;5043392;28;19962;-77
2022/12/30 07:14:36;;;;;;;;;;;8.00;1.00;;;;;;5035115;28;19947;-78
2022/12/30 07:17:06;;;;;;;;;;;8.00;1.00;;;;;;5041050;28;19909;-77
2022/12/30 07:19:36;;;;;;;;;;;8.00;1.00;;;;;;5031235;28;19921;-77
2022/12/30 07:22:02;;;;;;;;;;;8.00;1.00;;;;;;5039883;28;19924;-78
2022/12/30 07:24:36;;;;;;;;;;;8.10;1.00;;;;;;5047045;28;19909;-79
2022/12/30 07:27:02;;;;;;;;;;;8.10;1.00;;;;;;5052938;28;19916;-78
2022/12/30 07:29:27;;;;;;;;;;;8.10;1.00;;;;;;5041288;28;20344;-78
2022/12/30 07:31:53;;;;;;;;;;;8.20;1.00;;;;;;5048399;28;19913;-77
2022/12/30 07:34:18;;;;;;;;;;;8.20;1.00;;;;;;5038534;28;19913;-78
2022/12/30 07:37:01;;;;;;;;;;;8.10;1.00;;;;;;5040579;28;20318;-78
2022/12/30 07:39:37;;;;;;;;;;;8.20;1.00;;;;;;5050555;28;19924;-84
2022/12/30 07:45:08;;;;;;;;;;;8.10;1.00;;;;;;5047475;28;20031;-84
2022/12/30 07:47:48;;;;;;;;;;;8.30;1.00;;;;;;5043508;28;19964;-81
2022/12/30 07:56:54;;;;;;;;;;;8.40;1.00;;;;;;5038676;28;19975;-83
2022/12/30 08:02:22;;;;;;;;;;;8.40;1.00;;;;;;5047799;28;19920;-71
2022/12/30 08:04:48;;;;;;;;;;;8.50;1.00;;;;;;5044424;28;19917;-71
2022/12/30 08:07:17;;;;;;;;;;;8.40;1.00;;;;;;5040453;28;19913;-71
2022/12/30 08:09:43;;;;;;;;;;;8.30;1.00;;;;;;5035019;28;20360;-71
2022/12/30 08:12:09;;;;;;;;;;;8.30;1.00;;;;;;5034378;28;19925;-71
2022/12/30 08:14:35;;;;;;;;;;;8.20;1.00;;;;;;5045241;28;20434;-73
2022/12/30 08:17:00;;;;;;;;;;;8.20;1.00;;;;;;5045030;28;20369;-71
2022/12/30 08:19:27;;;;;;;;;;;8.30;1.00;;;;;;5053737;28;19919;-73
2022/12/30 08:22:00;;;;;;;;;;;8.20;1.00;;;;;;5043657;28;19917;-74
2022/12/30 08:24:30;;;;;;;;;;;8.20;1.00;;;;;;5046017;28;19913;-77
2022/12/30 08:26:56;;;;;;;;;;;8.30;1.00;;;;;;5044263;28;19909;-74
2022/12/30 08:29:21;;;;;;;;;;;8.30;1.00;;;;;;5067073;28;19913;-74
2022/12/30 08:31:49;;;;;;;;;;;8.40;1.00;;;;;;5045721;28;19909;-74
2022/12/30 08:34:17;;;;;;;;;;;8.40;1.00;;;;;;5044797;28;19913;-74
2022/12/30 08:36:43;;;;;;;;;;;8.50;1.00;;;;;;5053431;28;20390;-73
2022/12/30 08:39:09;;;;;;;;;;;8.50;1.00;;;;;;5040682;28;19928;-73
2022/12/30 08:41:36;;;;;;;;;;;8.50;1.00;;;;;;5033183;28;19917;-77
2022/12/30 08:44:36;;;;;;;;;;;8.50;1.00;;;;;;5061100;28;19908;-78
2022/12/30 08:47:24;;;;;;;;;;;8.50;1.00;;;;;;5043729;28;19919;-83
2022/12/30 08:50:12;;;;;;;;;;;8.60;1.00;;;;;;5040157;28;20054;-78
2022/12/30 08:55:48;;;;;;;;;;;8.90;1.00;;;;;;5045393;28;20009;-76
2022/12/30 08:58:31;;;;;;;;;;;9.20;1.00;;;;;;5034268;28;19920;-75
2022/12/30 09:00:57;;;;;;;;;;;9.10;1.00;;;;;;5033467;28;19913;-76
2022/12/30 09:03:22;;;;;;;;;;;9.30;1.00;;;;;;5061154;28;20433;-75
2022/12/30 09:05:54;;;;;;;;;;;9.40;1.00;;;;;;5052046;28;19951;-75
2022/12/30 09:08:20;;;;;;;;;;;9.60;1.00;;;;;;5046072;28;19913;-74
2022/12/30 09:10:59;;;;;;;;;;;9.70;1.00;;;;;;5036474;28;20321;-78
2022/12/30 09:13:30;;;;;;;;;;;9.90;1.00;;;;;;5044117;28;19916;-78
2022/12/30 09:15:56;;;;;;;;;;;10.00;1.00;;;;;;5033415;28;20348;-79
2022/12/30 09:18:36;;;;;;;;;;;10.00;1.00;;;;;;5047521;28;19920;-81
2022/12/30 09:21:02;;;;;;;;;;;10.00;1.00;;;;;;5043611;28;19963;-81
2022/12/30 09:23:28;;;;;;;;;;;9.90;1.00;;;;;;5047882;28;19917;-81
2022/12/30 09:26:00;;;;;;;;;;;9.70;1.00;;;;;;5037800;28;19913;-81
2022/12/30 09:28:30;;;;;;;;;;;9.80;1.00;;;;;;5045253;28;20376;-82
2022/12/30 09:31:06;;;;;;;;;;;9.70;1.00;;;;;;5043744;28;19917;-81
2022/12/30 09:34:06;;;;;;;;;;;9.60;1.00;;;;;;5047147;28;19916;-82
2022/12/30 09:36:48;;;;;;;;;;;9.70;1.00;;;;;;5042720;28;19913;-81
2022/12/30 09:39:14;;;;;;;;;;;9.80;1.00;;;;;;5047620;28;19917;-81
2022/12/30 09:44:41;;;;;;;;;;;9.50;1.00;;;;;;5038672;28;19920;-77
2022/12/30 09:47:16;;;;;;;;;;;9.50;1.00;;;;;;5035804;28;19979;-76
2022/12/30 09:49:44;;;;;;;;;;;9.60;1.00;;;;;;5040990;28;20387;-76
2022/12/30 09:52:22;;;;;;;;;;;9.60;1.00;;;;;;5045180;28;20015;-76
2022/12/30 09:54:56;;;;;;;;;;;9.50;1.00;;;;;;5044838;28;19920;-76
2022/12/30 09:57:37;;;;;;;;;;;9.50;1.00;;;;;;5049402;28;19919;-82
2022/12/30 10:00:19;;;;;;;;;;;9.40;1.00;;;;;;5066381;28;19908;-82
2022/12/30 10:02:48;;;;;;;;;;;9.40;1.00;;;;;;5042971;28;19923;-82
2022/12/30 10:05:42;;;;;;;;;;;9.50;1.00;;;;;;5042851;28;19971;-83
2022/12/30 10:08:30;;;;;;;;;;;9.60;1.00;;;;;;5036469;28;19909;-82
2022/12/30 10:11:27;;;;;;;;;;;9.60;1.00;;;;;;5040023;28;20319;-82
2022/12/30 10:14:12;;;;;;;;;;;9.60;1.00;;;;;;5055211;28;19909;-82
2022/12/30 10:16:54;;;;;;;;;;;9.60;1.00;;;;;;5052920;28;19920;-82
2022/12/30 10:19:32;;;;;;;;;;;9.70;1.00;;;;;;5037709;28;20319;-82
2022/12/30 10:22:14;;;;;;;;;;;9.80;1.00;;;;;;5046834;28;19913;-81
2022/12/30 10:25:06;;;;;;;;;;;9.80;1.00;;;;;;5048883;28;19912;-82
2022/12/30 10:27:54;;;;;;;;;;;9.80;1.00;;;;;;5045652;28;19978;-82
2022/12/30 10:30:22;;;;;;;;;;;10.00;1.00;;;;;;5046133;28;19916;-83
2022/12/30 10:33:00;;;;;;;;;;;10.20;1.00;;;;;;5054354;28;19936;-82
2022/12/30 10:35:31;;;;;;;;;;;10.30;1.00;;;;;;5039090;28;19932;-82
2022/12/30 10:41:11;;;;;;;;;;;10.40;1.00;;;;;;5049456;28;19920;-82
2022/12/30 10:43:54;;;;;;;;;;;10.50;1.00;;;;;;5052551;28;19964;-80
2022/12/30 10:49:49;;;;;;;;;;;10.50;1.00;;;;;;5047364;28;20432;-82
2022/12/30 10:58:27;;;;;;;;;;;10.60;1.00;;;;;;5050175;28;19909;-75
2022/12/30 11:00:55;;;;;;;;;;;10.50;1.00;;;;;;5048890;28;19948;-76
2022/12/30 11:03:29;;;;;;;;;;;10.70;1.00;;;;;;5051499;28;19916;-76
2022/12/30 11:05:56;;;;;;;;;;;10.60;1.00;;;;;;5040782;28;20284;-76
2022/12/30 11:08:26;;;;;;;;;;;10.50;1.00;;;;;;5044246;28;19909;-76
2022/12/30 11:11:02;;;;;;;;;;;10.50;1.00;;;;;;5053428;28;19924;-81
2022/12/30 11:16:33;;;;;;;;;;;10.60;1.00;;;;;;5048679;28;19915;-76
2022/12/30 11:19:01;;;;;;;;;;;10.50;1.00;;;;;;5037155;28;20429;-76
2022/12/30 11:21:29;;;;;;;;;;;10.60;1.00;;;;;;5045241;28;19913;-75
2022/12/30 11:23:56;;;;;;;;;;;10.60;1.00;;;;;;5050733;28;19991;-76
2022/12/30 11:26:32;;;;;;;;;;;10.60;1.00;;;;;;5044124;28;19916;-81
2022/12/30 11:29:18;;;;;;;;;;;10.70;1.00;;;;;;5048370;28;19931;-82
2022/12/30 11:32:08;;;;;;;;;;;10.80;1.00;;;;;;5048366;28;20007;-82
2022/12/30 11:34:55;;;;;;;;;;;10.80;1.00;;;;;;5041609;28;19920;-82
2022/12/30 11:37:34;;;;;;;;;;;10.70;1.00;;;;;;5033661;28;19910;-82
2022/12/30 11:40:31;;;;;;;;;;;10.60;1.00;;;;;;5047893;28;20384;-82
2022/12/30 11:43:25;;;;;;;;;;;10.60;1.00;;;;;;5048297;28;20360;-83
2022/12/30 11:46:00;;;;;;;;;;;10.60;1.00;;;;;;5045528;28;19941;-82
2022/12/30 11:49:03;;;;;;;;;;;10.70;1.00;;;;;;5035629;28;20000;-82
2022/12/30 11:54:36;;;;;;;;;;;10.80;1.00;;;;;;5012828;28;20573;-81
2022/12/30 11:57:17;;;;;;;;;;;10.80;1.00;;;;;;5013031;28;20286;-75
2022/12/30 12:00:07;;;;;;;;;;;10.80;1.00;;;;;;5012677;28;20345;-76
2022/12/30 12:02:37;;;;;;;;;;;10.70;1.00;;;;;;5012562;28;19975;-75
2022/12/30 12:05:27;;;;;;;;;;;10.70;1.00;;;;;;5021274;28;19966;-75
2022/12/30 12:08:16;;;;;;;;;;;10.70;1.00;;;;;;5025148;28;19909;-75
2022/12/30 12:10:44;;;;;;;;;;;10.70;1.00;;;;;;4977778;28;20267;-75
2022/12/30 12:13:21;;;;;;;;;;;10.90;1.00;;;;;;4973545;28;19918;-75
2022/12/30 12:15:53;;;;;;;;;;;10.90;1.00;;;;;;4973241;28;19918;-75
2022/12/30 12:18:27;;;;;;;;;;;10.90;1.00;;;;;;4962484;28;19961;-75
2022/12/30 12:21:01;;;;;;;;;;;10.80;1.00;;;;;;4960241;28;19968;-76
2022/12/30 12:23:39;;;;;;;;;;;10.90;1.00;;;;;;4973391;28;20313;-76
2022/12/30 12:26:09;;;;;;;;;;;10.80;1.00;;;;;;4988273;28;20434;-76
2022/12/30 12:28:43;;;;;;;;;;;10.90;1.00;;;;;;4990441;28;19910;-81
2022/12/30 12:31:37;;;;;;;;;;;10.90;1.00;;;;;;4984096;28;19914;-82
2022/12/30 12:34:07;;;;;;;;;;;10.90;1.00;;;;;;4989049;28;19910;-83
2022/12/30 12:36:33;;;;;;;;;;;10.80;1.00;;;;;;4973419;28;20378;-82
2022/12/30 12:39:19;;;;;;;;;;;10.80;1.00;;;;;;4965029;28;19953;-82
2022/12/30 12:42:06;;;;;;;;;;;10.90;1.00;;;;;;4981219;28;20398;-82
2022/12/30 12:48:07;;;;;;;;;;;10.90;1.00;;;;;;5002735;28;19915;-82
2022/12/30 12:50:42;;;;;;;;;;;10.90;1.00;;;;;;5044692;28;19914;-82
2022/12/30 12:53:31;;;;;;;;;;;10.90;1.00;;;;;;5049249;28;19912;-82
2022/12/30 12:56:08;;;;;;;;;;;10.90;1.00;;;;;;5047584;28;19913;-82
2022/12/30 12:58:52;;;;;;;;;;;10.80;1.00;;;;;;5054386;28;19955;-76
2022/12/30 13:01:29;;;;;;;;;;;10.80;1.00;;;;;;5051271;28;20000;-75
2022/12/30 13:04:10;;;;;;;;;;;10.80;1.00;;;;;;5038231;28;19917;-75
2022/12/30 13:06:55;;;;;;;;;;;10.90;1.00;;;;;;5068599;28;19955;-76
2022/12/30 13:09:28;;;;;;;;;;;11.00;1.00;;;;;;5073609;28;19919;-75
2022/12/30 13:12:02;;;;;;;;;;;11.00;1.00;;;;;;5064608;28;19958;-75
2022/12/30 13:14:43;;;;;;;;;;;11.10;1.00;;;;;;5042477;28;19909;-76
2022/12/30 13:17:14;;;;;;;;;;;11.10;1.00;;;;;;5036438;28;20292;-75
2022/12/30 13:19:55;;;;;;;;;;;11.20;1.00;;;;;;5053292;28;19924;-75
2022/12/30 13:22:31;;;;;;;;;;;11.20;1.00;;;;;;5046222;28;20241;-75
2022/12/30 13:24:58;;;;;;;;;;;11.30;1.00;;;;;;5047025;28;19916;-75
2022/12/30 13:27:33;;;;;;;;;;;11.40;1.00;;;;;;5064662;28;19975;-75
2022/12/30 13:30:02;;;;;;;;;;;11.50;1.00;;;;;;5037405;28;19959;-77
2022/12/30 13:32:45;;;;;;;;;;;11.50;1.00;;;;;;5038009;28;20311;-77
2022/12/30 13:35:25;;;;;;;;;;;11.60;1.00;;;;;;5039027;28;19996;-76
2022/12/30 13:38:04;;;;;;;;;;;11.60;1.00;;;;;;5052659;28;20241;-77
2022/12/30 13:40:34;;;;;;;;;;;11.40;1.00;;;;;;5036764;28;19928;-76
2022/12/30 13:43:08;;;;;;;;;;;11.40;1.00;;;;;;5050728;28;19917;-77
2022/12/30 13:45:57;;;;;;;;;;;11.30;1.00;;;;;;5043803;28;19917;-81
2022/12/30 13:48:28;;;;;;;;;;;11.30;1.00;;;;;;5041275;28;19962;-81
2022/12/30 13:51:13;;;;;;;;;;;11.20;1.00;;;;;;5036382;28;20320;-81
2022/12/30 13:53:46;;;;;;;;;;;11.20;1.00;;;;;;5037351;28;19909;-81
2022/12/30 13:56:37;;;;;;;;;;;11.10;1.00;;;;;;5042283;28;20011;-82
2022/12/30 13:59:22;;;;;;;;;;;11.10;1.00;;;;;;5050110;28;19913;-81
2022/12/30 14:02:08;;;;;;;;;;;11.00;1.00;;;;;;5042856;28;19919;-81
2022/12/30 14:05:07;;;;;;;;;;;11.00;1.00;;;;;;5046071;28;19917;-81
2022/12/30 14:07:49;;;;;;;;;;;10.90;1.00;;;;;;5044563;28;19919;-81
2022/12/30 14:13:44;;;;;;;;;;;10.90;1.00;;;;;;5037236;28;19936;-81
2022/12/30 14:16:38;;;;;;;;;;;10.80;1.00;;;;;;5040523;28;19943;-81
2022/12/30 14:19:11;;;;;;;;;;;10.90;1.00;;;;;;5051370;28;19913;-81
2022/12/30 14:21:45;;;;;;;;;;;10.80;1.00;;;;;;5039408;28;19948;-82
2022/12/30 14:24:37;;;;;;;;;;;10.90;1.00;;;;;;5046309;28;19909;-78
2022/12/30 14:27:02;;;;;;;;;;;10.90;1.00;;;;;;5014203;28;20281;-78
2022/12/30 14:29:35;;;;;;;;;;;10.90;1.00;;;;;;5014354;28;19909;-73
2022/12/30 14:32:22;;;;;;;;;;;11.00;1.00;;;;;;5014172;28;19933;-73
2022/12/30 14:34:56;;;;;;;;;;;11.00;1.00;;;;;;5027459;28;19949;-74
2022/12/30 14:37:26;;;;;;;;;;;10.90;1.00;;;;;;5001674;28;19914;-74
2022/12/30 14:39:52;;;;;;;;;;;10.90;1.00;;;;;;5009853;28;20297;-74
2022/12/30 14:42:24;;;;;;;;;;;10.90;1.00;;;;;;5014293;28;19924;-74
2022/12/30 14:44:53;;;;;;;;;;;10.80;1.00;;;;;;5026298;28;19909;-78
2022/12/30 14:47:38;;;;;;;;;;;10.80;1.00;;;;;;5006775;28;19917;-78
2022/12/30 14:50:25;;;;;;;;;;;10.70;1.00;;;;;;5013947;28;19988;-82
2022/12/30 14:52:53;;;;;;;;;;;10.70;1.00;;;;;;4985308;28;20369;-80
2022/12/30 14:55:28;;;;;;;;;;;10.70;1.00;;;;;;5013616;28;20381;-80
2022/12/30 15:01:32;;;;;;;;;;;10.60;1.00;;;;;;5001430;28;19973;-78
2022/12/30 15:04:11;;;;;;;;;;;10.50;1.00;;;;;;5025726;28;19967;-83
2022/12/30 15:06:50;;;;;;;;;;;10.30;1.00;;;;;;5047718;28;19917;-79
2022/12/30 15:09:23;;;;;;;;;;;10.20;1.00;;;;;;5042034;28;19913;-79
2022/12/30 15:11:52;;;;;;;;;;;10.20;1.00;;;;;;5038290;28;19913;-80
2022/12/30 15:14:20;;;;;;;;;;;10.10;1.00;;;;;;5044965;28;19909;-79
2022/12/30 15:17:03;;;;;;;;;;;10.00;1.00;;;;;;5048556;28;19963;-81
2022/12/30 15:19:50;;;;;;;;;;;9.90;1.00;;;;;;5048360;28;19966;-79
2022/12/30 15:22:20;;;;;;;;;;;9.90;1.00;;;;;;5039477;28;20415;-76
2022/12/30 15:24:56;;;;;;;;;;;9.80;1.00;;;;;;5052291;28;19915;-77
2022/12/30 15:27:21;;;;;;;;;;;9.70;1.00;;;;;;5045747;28;19909;-76
2022/12/30 15:30:05;;;;;;;;;;;9.70;1.00;;;;;;5037630;28;19917;-76
2022/12/30 15:32:32;;;;;;;;;;;9.70;1.00;;;;;;5048064;28;19909;-81
2022/12/30 15:38:03;;;;;;;;;;;9.60;1.00;;;;;;5047876;28;19994;-79
2022/12/30 15:40:30;;;;;;;;;;;9.60;1.00;;;;;;5046612;28;20395;-77
2022/12/30 15:43:03;;;;;;;;;;;9.50;1.00;;;;;;5067889;28;20015;-77
2022/12/30 15:45:37;;;;;;;;;;;9.60;1.00;;;;;;5050774;28;20276;-77
2022/12/30 15:48:23;;;;;;;;;;;9.50;1.00;;;;;;5041928;28;19909;-76
2022/12/30 15:50:54;;;;;;;;;;;9.50;1.00;;;;;;4983711;28;20427;-77
2022/12/30 15:53:24;;;;;;;;;;;9.50;1.00;;;;;;5014780;28;19913;-76
2022/12/30 15:55:56;;;;;;;;;;;9.50;1.00;;;;;;5012978;28;19921;-76
2022/12/30 15:58:25;;;;;;;;;;;9.50;1.00;;;;;;5007524;28;20000;-77
2022/12/30 16:00:56;;;;;;;;;;;9.50;1.00;;;;;;5006273;28;19920;-76
2022/12/30 16:03:21;;;;;;;;;;;9.50;1.00;;;;;;5019599;28;19913;-77
2022/12/30 16:05:51;;;;;;;;;;;9.40;1.00;;;;;;5000732;28;19924;-77
2022/12/30 16:08:26;;;;;;;;;;;9.40;1.00;;;;;;4995904;28;19909;-76
2022/12/30 16:11:14;;;;;;;;;;;9.40;1.00;;;;;;5003253;28;19913;-77
2022/12/30 16:14:02;;;;;;;;;;;9.40;1.00;;;;;;4997788;28;19979;-77
2022/12/30 16:16:32;;;;;;;;;;;9.40;1.00;;;;;;4998126;28;19945;-77
2022/12/30 16:19:13;;;;;;;;;;;9.50;1.00;;;;;;4994708;28;19914;-78
2022/12/30 16:22:02;;;;;;;;;;;9.50;1.00;;;;;;5005657;28;19988;-77
2022/12/30 16:24:38;;;;;;;;;;;9.60;1.00;;;;;;5001675;28;19975;-79
2022/12/30 16:27:05;;;;;;;;;;;9.60;1.00;;;;;;5010990;28;20324;-77
2022/12/30 16:29:35;;;;;;;;;;;9.60;1.00;;;;;;5044215;28;20365;-77
2022/12/30 16:32:01;;;;;;;;;;;9.60;1.00;;;;;;5055940;28;20454;-78
2022/12/30 16:34:50;;;;;;;;;;;9.60;1.00;;;;;;5048693;28;19974;-78
2022/12/30 16:37:44;;;;;;;;;;;9.60;1.00;;;;;;5044334;28;19913;-78
2022/12/30 16:40:22;;;;;;;;;;;9.60;1.00;;;;;;5033754;28;19929;-78
2022/12/30 16:43:02;;;;;;;;;;;9.50;1.00;;;;;;5042979;28;19920;-79
2022/12/30 16:45:28;;;;;;;;;;;9.60;1.00;;;;;;5032684;28;19920;-77
2022/12/30 16:47:56;;;;;;;;;;;9.50;1.00;;;;;;5040819;28;19909;-78
2022/12/30 16:50:22;;;;;;;;;;;9.60;1.00;;;;;;5035073;28;19944;-77
2022/12/30 16:52:48;;;;;;;;;;;9.60;1.00;;;;;;5040035;28;19956;-76
2022/12/30 16:55:20;;;;;;;;;;;9.60;1.00;;;;;;5032612;28;19912;-76
2022/12/30 16:57:46;;;;;;;;;;;9.70;1.40;;;;;;5046487;28;19920;-77
2022/12/30 17:00:19;;;;;;;;;;;9.80;2.10;;;;;;5054446;28;19908;-77
2022/12/30 17:03:08;;;;;;;;;;;9.70;3.40;;;;;;5057847;28;20327;-77
2022/12/30 17:05:38;;;;;;;;;;;9.80;3.80;;;;;;5038119;28;19917;-78
2022/12/30 17:08:15;;;;;;;;;;;9.80;7.50;;;;;;5051223;28;19958;-78
2022/12/30 17:10:55;;;;;;;;;;;9.80;10.70;;;;;;5039788;28;19916;-78
2022/12/30 17:13:28;;;;;;;;;;;9.80;12.00;;;;;;5046283;28;20330;-78
2022/12/30 17:15:54;;;;;;;;;;;9.80;16.00;;;;;;5044213;28;19914;-77
2022/12/30 17:18:21;;;;;;;;;;;9.70;20.90;;;;;;5040410;28;20438;-75
2022/12/30 17:20:51;;;;;;;;;;;9.80;25.30;;;;;;5044722;28;19920;-72
2022/12/30 17:23:50;;;;;;;;;;;9.80;26.10;;;;;;5042304;28;19952;-83
2022/12/30 17:26:19;;;;;;;;;;;9.80;24.10;;;;;;5040519;28;19921;-83
2022/12/30 17:29:02;;;;;;;;;;;9.80;27.70;;;;;;5050904;28;19948;-83
2022/12/30 17:31:34;;;;;;;;;;;9.80;33.20;;;;;;5037071;28;19913;-83
2022/12/30 17:33:59;;;;;;;;;;;9.80;36.80;;;;;;5042320;28;19916;-83
2022/12/30 17:36:32;;;;;;;;;;;9.80;42.60;;;;;;5048846;28;19920;-81
2022/12/30 17:39:14;;;;;;;;;;;9.80;42.70;;;;;;5050778;28;19967;-79
2022/12/30 17:41:40;;;;;;;;;;;9.80;42.70;;;;;;5042015;28;19917;-80